Toledo, Ohio
Current Conditions -  °F | °C
As of 3:53 PM on Saturday 25 Oct 2014 (Local Time) from KTDZ Reporting Station
Clear Clear  
Wind Chill: 21°   Ceiling: Unl
Heat Index: 21°   Visibility: 10mi
Dew Point:   Wind: 22mph
Humidity: 45%   Direction: 270°W
Pressure: 29.79"   Gusts: 26mph
Location:  41.65°N, 83.54°W
Report Text: KTDZ 251953Z AUTO 27019G23KT 10SM CLR 21/08 A2979 RMK AO2 SLP085 T02060083 TSNO
Loading
Personal Weather Stations






























Interactive Weather Map
Tropical Storm Tracking
New forecast layout! Learn more

10-Day Weather Forecast

Advertisements
Track Severe Weather on mobile